sensor_id;sensor_type;location;lat;lon;timestamp;P1;durP1;ratioP1;P2;durP2;ratioP2
7199;SDS011;3641;49.082;8.200;2022-09-09T00:02:04;5.00;;;1.50;;
7199;SDS011;3641;49.082;8.200;2022-09-09T00:04:35;4.50;;;1.20;;
7199;SDS011;3641;49.082;8.200;2022-09-09T00:07:04;7.80;;;1.33;;
7199;SDS011;3641;49.082;8.200;2022-09-09T00:09:39;4.75;;;1.58;;
7199;SDS011;3641;49.082;8.200;2022-09-09T00:12:13;4.03;;;1.02;;
7199;SDS011;3641;49.082;8.200;2022-09-09T00:14:47;4.30;;;1.10;;
7199;SDS011;3641;49.082;8.200;2022-09-09T00:17:19;8.95;;;1.30;;
7199;SDS011;3641;49.082;8.200;2022-09-09T00:19:53;5.22;;;1.20;;
7199;SDS011;3641;49.082;8.200;2022-09-09T00:22:23;6.80;;;1.40;;
7199;SDS011;3641;49.082;8.200;2022-09-09T00:24:52;5.18;;;1.27;;
7199;SDS011;3641;49.082;8.200;2022-09-09T00:27:23;4.60;;;1.60;;
7199;SDS011;3641;49.082;8.200;2022-09-09T00:29:57;4.60;;;1.35;;
7199;SDS011;3641;49.082;8.200;2022-09-09T00:32:27;7.13;;;1.20;;
7199;SDS011;3641;49.082;8.200;2022-09-09T00:34:56;4.90;;;1.63;;
7199;SDS011;3641;49.082;8.200;2022-09-09T00:37:27;5.88;;;1.50;;
7199;SDS011;3641;49.082;8.200;2022-09-09T00:39:57;4.82;;;1.27;;
7199;SDS011;3641;49.082;8.200;2022-09-09T00:42:32;6.13;;;1.60;;
7199;SDS011;3641;49.082;8.200;2022-09-09T00:45:10;5.75;;;1.40;;
7199;SDS011;3641;49.082;8.200;2022-09-09T00:47:50;7.63;;;1.85;;
7199;SDS011;3641;49.082;8.200;2022-09-09T00:50:25;6.25;;;1.80;;
7199;SDS011;3641;49.082;8.200;2022-09-09T00:53:11;8.20;;;2.17;;
7199;SDS011;3641;49.082;8.200;2022-09-09T00:55:51;7.70;;;1.90;;
7199;SDS011;3641;49.082;8.200;2022-09-09T00:58:25;3.83;;;1.67;;
7199;SDS011;3641;49.082;8.200;2022-09-09T01:00:53;3.72;;;1.50;;
7199;SDS011;3641;49.082;8.200;2022-09-09T01:03:26;5.07;;;1.73;;
7199;SDS011;3641;49.082;8.200;2022-09-09T01:06:00;5.00;;;1.55;;
7199;SDS011;3641;49.082;8.200;2022-09-09T01:08:35;12.88;;;1.80;;
7199;SDS011;3641;49.082;8.200;2022-09-09T01:11:10;6.78;;;1.70;;
7199;SDS011;3641;49.082;8.200;2022-09-09T01:13:47;4.47;;;1.77;;
7199;SDS011;3641;49.082;8.200;2022-09-09T01:16:18;5.43;;;1.42;;
7199;SDS011;3641;49.082;8.200;2022-09-09T01:18:46;8.07;;;2.00;;
7199;SDS011;3641;49.082;8.200;2022-09-09T01:21:19;12.10;;;2.10;;
7199;SDS011;3641;49.082;8.200;2022-09-09T01:23:57;7.13;;;1.63;;
7199;SDS011;3641;49.082;8.200;2022-09-09T01:26:36;7.07;;;1.60;;
7199;SDS011;3641;49.082;8.200;2022-09-09T01:29:06;5.82;;;1.73;;
7199;SDS011;3641;49.082;8.200;2022-09-09T01:31:36;5.22;;;1.90;;
7199;SDS011;3641;49.082;8.200;2022-09-09T01:34:07;5.57;;;1.80;;
7199;SDS011;3641;49.082;8.200;2022-09-09T01:36:38;6.53;;;1.60;;
7199;SDS011;3641;49.082;8.200;2022-09-09T01:39:08;6.45;;;1.65;;
7199;SDS011;3641;49.082;8.200;2022-09-09T01:41:36;6.28;;;1.33;;
7199;SDS011;3641;49.082;8.200;2022-09-09T01:44:03;6.30;;;2.13;;
7199;SDS011;3641;49.082;8.200;2022-09-09T01:46:31;6.90;;;1.20;;
7199;SDS011;3641;49.082;8.200;2022-09-09T01:48:57;6.50;;;1.20;;
7199;SDS011;3641;49.082;8.200;2022-09-09T01:51:26;5.25;;;1.65;;
7199;SDS011;3641;49.082;8.200;2022-09-09T01:53:53;6.68;;;1.20;;
7199;SDS011;3641;49.082;8.200;2022-09-09T01:56:26;5.45;;;1.20;;
7199;SDS011;3641;49.082;8.200;2022-09-09T01:59:05;5.60;;;1.10;;
7199;SDS011;3641;49.082;8.200;2022-09-09T02:01:46;4.13;;;1.40;;
7199;SDS011;3641;49.082;8.200;2022-09-09T02:04:27;6.65;;;1.35;;
7199;SDS011;3641;49.082;8.200;2022-09-09T02:07:02;6.55;;;1.10;;
7199;SDS011;3641;49.082;8.200;2022-09-09T02:09:35;7.50;;;1.20;;
7199;SDS011;3641;49.082;8.200;2022-09-09T02:12:05;9.48;;;1.30;;
7199;SDS011;3641;49.082;8.200;2022-09-09T02:14:39;8.02;;;1.20;;
7199;SDS011;3641;49.082;8.200;2022-09-09T02:17:09;6.82;;;1.15;;
7199;SDS011;3641;49.082;8.200;2022-09-09T02:19:37;6.32;;;1.17;;
7199;SDS011;3641;49.082;8.200;2022-09-09T02:22:08;6.60;;;1.40;;
7199;SDS011;3641;49.082;8.200;2022-09-09T02:24:37;7.05;;;1.25;;
7199;SDS011;3641;49.082;8.200;2022-09-09T02:27:05;5.00;;;0.90;;
7199;SDS011;3641;49.082;8.200;2022-09-09T02:29:35;3.20;;;1.00;;
7199;SDS011;3641;49.082;8.200;2022-09-09T02:32:06;8.35;;;1.10;;
7199;SDS011;3641;49.082;8.200;2022-09-09T02:34:35;6.07;;;1.17;;
7199;SDS011;3641;49.082;8.200;2022-09-09T02:37:05;6.03;;;1.23;;
7199;SDS011;3641;49.082;8.200;2022-09-09T02:39:34;5.20;;;0.95;;
7199;SDS011;3641;49.082;8.200;2022-09-09T02:42:00;8.55;;;1.00;;
7199;SDS011;3641;49.082;8.200;2022-09-09T02:44:28;7.93;;;1.30;;
7199;SDS011;3641;49.082;8.200;2022-09-09T02:46:59;5.90;;;1.40;;
7199;SDS011;3641;49.082;8.200;2022-09-09T02:49:48;6.47;;;1.15;;
7199;SDS011;3641;49.082;8.200;2022-09-09T02:52:26;5.45;;;1.10;;
7199;SDS011;3641;49.082;8.200;2022-09-09T02:55:00;5.00;;;1.38;;
7199;SDS011;3641;49.082;8.200;2022-09-09T02:57:33;3.72;;;1.00;;
7199;SDS011;3641;49.082;8.200;2022-09-09T03:00:02;6.68;;;1.45;;
7199;SDS011;3641;49.082;8.200;2022-09-09T03:02:31;6.07;;;1.20;;
7199;SDS011;3641;49.082;8.200;2022-09-09T03:04:57;5.53;;;1.00;;
7199;SDS011;3641;49.082;8.200;2022-09-09T03:07:24;5.88;;;1.13;;
7199;SDS011;3641;49.082;8.200;2022-09-09T03:09:52;5.72;;;1.00;;
7199;SDS011;3641;49.082;8.200;2022-09-09T03:12:19;5.25;;;1.33;;
7199;SDS011;3641;49.082;8.200;2022-09-09T03:14:46;5.30;;;1.42;;
7199;SDS011;3641;49.082;8.200;2022-09-09T03:17:12;5.03;;;0.95;;
7199;SDS011;3641;49.082;8.200;2022-09-09T03:19:40;3.78;;;1.05;;
7199;SDS011;3641;49.082;8.200;2022-09-09T03:22:08;4.47;;;1.10;;
7199;SDS011;3641;49.082;8.200;2022-09-09T03:24:35;5.07;;;1.02;;
7199;SDS011;3641;49.082;8.200;2022-09-09T03:27:02;7.28;;;1.30;;
7199;SDS011;3641;49.082;8.200;2022-09-09T03:29:28;5.60;;;1.42;;
7199;SDS011;3641;49.082;8.200;2022-09-09T03:31:55;4.78;;;1.30;;
7199;SDS011;3641;49.082;8.200;2022-09-09T03:34:21;3.35;;;1.15;;
7199;SDS011;3641;49.082;8.200;2022-09-09T03:36:49;3.85;;;1.00;;
7199;SDS011;3641;49.082;8.200;2022-09-09T03:39:16;4.30;;;1.20;;
7199;SDS011;3641;49.082;8.200;2022-09-09T03:41:42;3.38;;;1.00;;
7199;SDS011;3641;49.082;8.200;2022-09-09T03:44:11;4.40;;;1.40;;
7199;SDS011;3641;49.082;8.200;2022-09-09T03:46:37;3.08;;;1.20;;
7199;SDS011;3641;49.082;8.200;2022-09-09T03:49:04;6.47;;;1.17;;
7199;SDS011;3641;49.082;8.200;2022-09-09T03:51:30;4.20;;;1.58;;
7199;SDS011;3641;49.082;8.200;2022-09-09T03:54:03;3.63;;;1.08;;
7199;SDS011;3641;49.082;8.200;2022-09-09T03:56:30;2.70;;;1.13;;
7199;SDS011;3641;49.082;8.200;2022-09-09T03:58:56;5.65;;;1.10;;
7199;SDS011;3641;49.082;8.200;2022-09-09T04:01:23;4.57;;;0.98;;
7199;SDS011;3641;49.082;8.200;2022-09-09T04:03:49;2.63;;;1.20;;
7199;SDS011;3641;49.082;8.200;2022-09-09T04:06:17;7.93;;;1.50;;
7199;SDS011;3641;49.082;8.200;2022-09-09T04:08:46;4.90;;;1.30;;
7199;SDS011;3641;49.082;8.200;2022-09-09T04:11:15;7.93;;;0.90;;
7199;SDS011;3641;49.082;8.200;2022-09-09T04:13:42;5.00;;;1.00;;
7199;SDS011;3641;49.082;8.200;2022-09-09T04:16:09;4.00;;;0.93;;
7199;SDS011;3641;49.082;8.200;2022-09-09T04:18:38;7.80;;;1.30;;
7199;SDS011;3641;49.082;8.200;2022-09-09T04:21:04;4.65;;;1.10;;
7199;SDS011;3641;49.082;8.200;2022-09-09T04:23:32;5.22;;;1.20;;
7199;SDS011;3641;49.082;8.200;2022-09-09T04:26:00;6.20;;;1.23;;
7199;SDS011;3641;49.082;8.200;2022-09-09T04:28:30;3.45;;;1.10;;
7199;SDS011;3641;49.082;8.200;2022-09-09T04:31:03;3.97;;;1.10;;
7199;SDS011;3641;49.082;8.200;2022-09-09T04:33:30;5.30;;;1.20;;
7199;SDS011;3641;49.082;8.200;2022-09-09T04:35:57;5.57;;;1.00;;
7199;SDS011;3641;49.082;8.200;2022-09-09T04:38:23;3.65;;;1.10;;
7199;SDS011;3641;49.082;8.200;2022-09-09T04:40:51;4.88;;;1.20;;
7199;SDS011;3641;49.082;8.200;2022-09-09T04:43:19;4.40;;;1.17;;
7199;SDS011;3641;49.082;8.200;2022-09-09T04:45:47;6.00;;;1.20;;
7199;SDS011;3641;49.082;8.200;2022-09-09T04:48:16;4.43;;;1.05;;
7199;SDS011;3641;49.082;8.200;2022-09-09T04:50:42;5.75;;;1.20;;
7199;SDS011;3641;49.082;8.200;2022-09-09T04:53:09;5.30;;;1.23;;
7199;SDS011;3641;49.082;8.200;2022-09-09T04:55:36;4.25;;;1.00;;
7199;SDS011;3641;49.082;8.200;2022-09-09T04:58:03;6.22;;;1.35;;
7199;SDS011;3641;49.082;8.200;2022-09-09T05:00:30;2.67;;;1.10;;
7199;SDS011;3641;49.082;8.200;2022-09-09T05:02:57;6.15;;;1.30;;
7199;SDS011;3641;49.082;8.200;2022-09-09T05:05:24;8.52;;;1.30;;
7199;SDS011;3641;49.082;8.200;2022-09-09T05:07:51;3.80;;;1.02;;
7199;SDS011;3641;49.082;8.200;2022-09-09T05:10:17;4.28;;;1.05;;
7199;SDS011;3641;49.082;8.200;2022-09-09T05:12:51;4.68;;;1.00;;
7199;SDS011;3641;49.082;8.200;2022-09-09T05:15:18;6.53;;;1.20;;
7199;SDS011;3641;49.082;8.200;2022-09-09T05:17:46;3.72;;;1.35;;
7199;SDS011;3641;49.082;8.200;2022-09-09T05:20:14;5.53;;;1.33;;
7199;SDS011;3641;49.082;8.200;2022-09-09T05:22:40;4.00;;;1.08;;
7199;SDS011;3641;49.082;8.200;2022-09-09T05:25:07;5.90;;;1.20;;
7199;SDS011;3641;49.082;8.200;2022-09-09T05:27:34;3.13;;;1.10;;
7199;SDS011;3641;49.082;8.200;2022-09-09T05:30:00;3.45;;;1.30;;
7199;SDS011;3641;49.082;8.200;2022-09-09T05:32:27;3.85;;;1.10;;
7199;SDS011;3641;49.082;8.200;2022-09-09T05:34:59;4.57;;;1.00;;
7199;SDS011;3641;49.082;8.200;2022-09-09T05:37:27;4.07;;;1.23;;
7199;SDS011;3641;49.082;8.200;2022-09-09T05:39:55;2.63;;;1.00;;
7199;SDS011;3641;49.082;8.200;2022-09-09T05:42:21;4.20;;;1.40;;
7199;SDS011;3641;49.082;8.200;2022-09-09T05:44:48;3.05;;;0.90;;
7199;SDS011;3641;49.082;8.200;2022-09-09T05:47:15;5.90;;;1.35;;
7199;SDS011;3641;49.082;8.200;2022-09-09T05:49:42;4.10;;;1.20;;
7199;SDS011;3641;49.082;8.200;2022-09-09T05:52:08;5.25;;;1.10;;
7199;SDS011;3641;49.082;8.200;2022-09-09T05:54:36;4.35;;;1.20;;
7199;SDS011;3641;49.082;8.200;2022-09-09T05:57:04;6.50;;;1.17;;
7199;SDS011;3641;49.082;8.200;2022-09-09T05:59:30;4.70;;;1.00;;
7199;SDS011;3641;49.082;8.200;2022-09-09T06:01:57;3.42;;;0.90;;
7199;SDS011;3641;49.082;8.200;2022-09-09T06:04:24;3.05;;;1.05;;
7199;SDS011;3641;49.082;8.200;2022-09-09T06:06:50;3.85;;;0.85;;
7199;SDS011;3641;49.082;8.200;2022-09-09T06:09:17;6.55;;;1.55;;
7199;SDS011;3641;49.082;8.200;2022-09-09T06:11:45;6.97;;;1.38;;
7199;SDS011;3641;49.082;8.200;2022-09-09T06:14:11;7.40;;;1.13;;
7199;SDS011;3641;49.082;8.200;2022-09-09T06:16:38;3.22;;;1.20;;
7199;SDS011;3641;49.082;8.200;2022-09-09T06:19:07;7.18;;;1.20;;
7199;SDS011;3641;49.082;8.200;2022-09-09T06:21:34;3.53;;;0.98;;
7199;SDS011;3641;49.082;8.200;2022-09-09T06:24:02;3.83;;;1.10;;
7199;SDS011;3641;49.082;8.200;2022-09-09T06:26:29;7.50;;;1.05;;
7199;SDS011;3641;49.082;8.200;2022-09-09T06:28:59;3.50;;;1.00;;
7199;SDS011;3641;49.082;8.200;2022-09-09T06:31:28;6.47;;;1.10;;
7199;SDS011;3641;49.082;8.200;2022-09-09T06:33:56;6.38;;;1.17;;
7199;SDS011;3641;49.082;8.200;2022-09-09T06:36:25;3.88;;;1.00;;
7199;SDS011;3641;49.082;8.200;2022-09-09T06:38:53;3.90;;;1.05;;
7199;SDS011;3641;49.082;8.200;2022-09-09T06:41:20;5.50;;;1.20;;
7199;SDS011;3641;49.082;8.200;2022-09-09T06:43:50;4.93;;;1.58;;
7199;SDS011;3641;49.082;8.200;2022-09-09T06:46:18;4.13;;;1.10;;
7199;SDS011;3641;49.082;8.200;2022-09-09T06:48:46;4.13;;;1.20;;
7199;SDS011;3641;49.082;8.200;2022-09-09T06:51:14;5.82;;;1.10;;
7199;SDS011;3641;49.082;8.200;2022-09-09T06:53:43;3.78;;;1.30;;
7199;SDS011;3641;49.082;8.200;2022-09-09T06:56:18;7.50;;;1.35;;
7199;SDS011;3641;49.082;8.200;2022-09-09T06:58:46;4.45;;;1.30;;
7199;SDS011;3641;49.082;8.200;2022-09-09T07:01:14;5.45;;;1.27;;
7199;SDS011;3641;49.082;8.200;2022-09-09T07:03:45;4.97;;;1.17;;
7199;SDS011;3641;49.082;8.200;2022-09-09T07:06:13;3.78;;;1.13;;
7199;SDS011;3641;49.082;8.200;2022-09-09T07:08:42;4.55;;;1.00;;
7199;SDS011;3641;49.082;8.200;2022-09-09T07:11:08;3.40;;;1.10;;
7199;SDS011;3641;49.082;8.200;2022-09-09T07:13:36;4.47;;;0.85;;
7199;SDS011;3641;49.082;8.200;2022-09-09T07:16:03;4.18;;;1.00;;
7199;SDS011;3641;49.082;8.200;2022-09-09T07:18:30;5.43;;;1.30;;
7199;SDS011;3641;49.082;8.200;2022-09-09T07:20:58;1.98;;;1.05;;
7199;SDS011;3641;49.082;8.200;2022-09-09T07:23:25;6.22;;;1.27;;
7199;SDS011;3641;49.082;8.200;2022-09-09T07:25:53;4.18;;;1.40;;
7199;SDS011;3641;49.082;8.200;2022-09-09T07:28:20;4.32;;;2.15;;
7199;SDS011;3641;49.082;8.200;2022-09-09T07:30:52;5.95;;;1.45;;
7199;SDS011;3641;49.082;8.200;2022-09-09T07:33:19;6.28;;;1.20;;
7199;SDS011;3641;49.082;8.200;2022-09-09T07:35:46;5.05;;;1.27;;
7199;SDS011;3641;49.082;8.200;2022-09-09T07:38:13;5.82;;;1.30;;
7199;SDS011;3641;49.082;8.200;2022-09-09T07:40:43;7.38;;;2.03;;
7199;SDS011;3641;49.082;8.200;2022-09-09T07:43:10;4.57;;;1.08;;
7199;SDS011;3641;49.082;8.200;2022-09-09T07:45:37;3.50;;;1.08;;
7199;SDS011;3641;49.082;8.200;2022-09-09T07:48:05;5.45;;;1.30;;
7199;SDS011;3641;49.082;8.200;2022-09-09T07:50:32;5.10;;;0.95;;
7199;SDS011;3641;49.082;8.200;2022-09-09T07:52:58;5.43;;;1.35;;
7199;SDS011;3641;49.082;8.200;2022-09-09T07:55:26;5.95;;;1.30;;
7199;SDS011;3641;49.082;8.200;2022-09-09T07:57:53;5.25;;;1.48;;
7199;SDS011;3641;49.082;8.200;2022-09-09T08:00:21;5.45;;;1.20;;
7199;SDS011;3641;49.082;8.200;2022-09-09T08:02:48;11.48;;;1.80;;
7199;SDS011;3641;49.082;8.200;2022-09-09T08:05:15;9.90;;;1.80;;
7199;SDS011;3641;49.082;8.200;2022-09-09T08:07:42;5.05;;;1.70;;
7199;SDS011;3641;49.082;8.200;2022-09-09T08:10:09;6.30;;;2.03;;
7199;SDS011;3641;49.082;8.200;2022-09-09T08:12:37;5.95;;;2.25;;
7199;SDS011;3641;49.082;8.200;2022-09-09T08:15:04;7.75;;;2.03;;
7199;SDS011;3641;49.082;8.200;2022-09-09T08:17:37;8.50;;;1.75;;
7199;SDS011;3641;49.082;8.200;2022-09-09T08:20:04;5.63;;;1.60;;
7199;SDS011;3641;49.082;8.200;2022-09-09T08:22:31;10.63;;;1.92;;
7199;SDS011;3641;49.082;8.200;2022-09-09T08:24:57;6.10;;;1.88;;
7199;SDS011;3641;49.082;8.200;2022-09-09T08:27:24;7.25;;;1.83;;
7199;SDS011;3641;49.082;8.200;2022-09-09T08:29:52;8.75;;;2.03;;
7199;SDS011;3641;49.082;8.200;2022-09-09T08:32:18;5.65;;;1.90;;
7199;SDS011;3641;49.082;8.200;2022-09-09T08:34:45;7.97;;;2.53;;
7199;SDS011;3641;49.082;8.200;2022-09-09T08:37:12;7.10;;;2.20;;
7199;SDS011;3641;49.082;8.200;2022-09-09T08:39:39;8.10;;;1.73;;
7199;SDS011;3641;49.082;8.200;2022-09-09T08:42:09;14.18;;;2.13;;
7199;SDS011;3641;49.082;8.200;2022-09-09T08:44:55;5.90;;;1.70;;
7199;SDS011;3641;49.082;8.200;2022-09-09T08:47:37;9.23;;;1.63;;
7199;SDS011;3641;49.082;8.200;2022-09-09T08:50:14;7.38;;;1.40;;
7199;SDS011;3641;49.082;8.200;2022-09-09T08:52:48;4.53;;;1.50;;
7199;SDS011;3641;49.082;8.200;2022-09-09T08:55:20;7.18;;;1.63;;
7199;SDS011;3641;49.082;8.200;2022-09-09T08:57:53;6.82;;;1.80;;
7199;SDS011;3641;49.082;8.200;2022-09-09T09:00:23;6.00;;;1.52;;
7199;SDS011;3641;49.082;8.200;2022-09-09T09:03:00;9.38;;;1.80;;
7199;SDS011;3641;49.082;8.200;2022-09-09T09:05:36;7.22;;;1.40;;
7199;SDS011;3641;49.082;8.200;2022-09-09T09:08:11;9.98;;;1.85;;
7199;SDS011;3641;49.082;8.200;2022-09-09T09:10:47;7.43;;;1.58;;
7199;SDS011;3641;49.082;8.200;2022-09-09T09:13:17;5.60;;;1.25;;
7199;SDS011;3641;49.082;8.200;2022-09-09T09:15:48;11.25;;;1.75;;
7199;SDS011;3641;49.082;8.200;2022-09-09T09:18:19;7.00;;;1.88;;
7199;SDS011;3641;49.082;8.200;2022-09-09T09:20:49;5.53;;;1.40;;
7199;SDS011;3641;49.082;8.200;2022-09-09T09:23:21;7.95;;;1.70;;
7199;SDS011;3641;49.082;8.200;2022-09-09T09:25:49;5.70;;;1.40;;
7199;SDS011;3641;49.082;8.200;2022-09-09T09:28:18;5.97;;;1.52;;
7199;SDS011;3641;49.082;8.200;2022-09-09T09:30:52;10.45;;;1.75;;
7199;SDS011;3641;49.082;8.200;2022-09-09T09:33:25;8.68;;;2.00;;
7199;SDS011;3641;49.082;8.200;2022-09-09T09:35:56;6.63;;;1.50;;
7199;SDS011;3641;49.082;8.200;2022-09-09T09:38:25;8.43;;;1.70;;
7199;SDS011;3641;49.082;8.200;2022-09-09T09:40:54;10.30;;;1.90;;
7199;SDS011;3641;49.082;8.200;2022-09-09T09:43:23;7.30;;;2.03;;
7199;SDS011;3641;49.082;8.200;2022-09-09T09:45:54;10.30;;;2.03;;
7199;SDS011;3641;49.082;8.200;2022-09-09T09:48:23;9.38;;;1.88;;
7199;SDS011;3641;49.082;8.200;2022-09-09T09:50:50;6.75;;;2.08;;
7199;SDS011;3641;49.082;8.200;2022-09-09T09:53:21;10.20;;;2.13;;
7199;SDS011;3641;49.082;8.200;2022-09-09T09:55:52;9.68;;;2.25;;
7199;SDS011;3641;49.082;8.200;2022-09-09T09:58:21;5.53;;;2.10;;
7199;SDS011;3641;49.082;8.200;2022-09-09T10:00:48;15.75;;;2.40;;
7199;SDS011;3641;49.082;8.200;2022-09-09T10:03:25;6.03;;;1.50;;
7199;SDS011;3641;49.082;8.200;2022-09-09T10:05:53;5.70;;;1.95;;
7199;SDS011;3641;49.082;8.200;2022-09-09T10:08:21;6.97;;;1.70;;
7199;SDS011;3641;49.082;8.200;2022-09-09T10:13:44;6.75;;;1.83;;
7199;SDS011;3641;49.082;8.200;2022-09-09T10:16:23;10.38;;;1.83;;
7199;SDS011;3641;49.082;8.200;2022-09-09T10:18:59;10.18;;;1.67;;
7199;SDS011;3641;49.082;8.200;2022-09-09T10:21:32;7.50;;;2.20;;
7199;SDS011;3641;49.082;8.200;2022-09-09T10:24:17;8.25;;;2.40;;
7199;SDS011;3641;49.082;8.200;2022-09-09T10:26:58;7.40;;;1.77;;
7199;SDS011;3641;49.082;8.200;2022-09-09T10:29:35;8.10;;;1.63;;
7199;SDS011;3641;49.082;8.200;2022-09-09T10:32:20;6.03;;;1.50;;
7199;SDS011;3641;49.082;8.200;2022-09-09T10:35:01;8.95;;;2.85;;
7199;SDS011;3641;49.082;8.200;2022-09-09T10:37:39;9.60;;;2.45;;
7199;SDS011;3641;49.082;8.200;2022-09-09T10:40:15;8.48;;;1.90;;
7199;SDS011;3641;49.082;8.200;2022-09-09T10:42:50;5.70;;;1.45;;
7199;SDS011;3641;49.082;8.200;2022-09-09T10:45:18;7.28;;;1.65;;
7199;SDS011;3641;49.082;8.200;2022-09-09T10:47:56;10.77;;;1.65;;
7199;SDS011;3641;49.082;8.200;2022-09-09T10:50:42;3.97;;;1.25;;
7199;SDS011;3641;49.082;8.200;2022-09-09T10:53:18;5.55;;;1.38;;
7199;SDS011;3641;49.082;8.200;2022-09-09T10:55:53;7.38;;;1.52;;
7199;SDS011;3641;49.082;8.200;2022-09-09T10:58:30;6.82;;;1.50;;
7199;SDS011;3641;49.082;8.200;2022-09-09T11:01:02;6.20;;;1.27;;
7199;SDS011;3641;49.082;8.200;2022-09-09T11:03:36;6.97;;;1.35;;
7199;SDS011;3641;49.082;8.200;2022-09-09T11:06:09;7.72;;;1.45;;
7199;SDS011;3641;49.082;8.200;2022-09-09T11:08:40;6.97;;;1.55;;
7199;SDS011;3641;49.082;8.200;2022-09-09T11:11:09;6.40;;;1.30;;
7199;SDS011;3641;49.082;8.200;2022-09-09T11:13:42;7.30;;;0.95;;
7199;SDS011;3641;49.082;8.200;2022-09-09T11:16:19;7.35;;;1.20;;
7199;SDS011;3641;49.082;8.200;2022-09-09T11:18:51;6.57;;;1.20;;
7199;SDS011;3641;49.082;8.200;2022-09-09T11:21:26;7.03;;;0.90;;
7199;SDS011;3641;49.082;8.200;2022-09-09T11:23:57;7.65;;;1.15;;
7199;SDS011;3641;49.082;8.200;2022-09-09T11:26:30;7.05;;;1.23;;
7199;SDS011;3641;49.082;8.200;2022-09-09T11:29:09;4.60;;;1.10;;
7199;SDS011;3641;49.082;8.200;2022-09-09T11:31:50;6.68;;;1.17;;
7199;SDS011;3641;49.082;8.200;2022-09-09T11:34:33;10.57;;;1.00;;
7199;SDS011;3641;49.082;8.200;2022-09-09T11:37:20;5.63;;;0.90;;
7199;SDS011;3641;49.082;8.200;2022-09-09T11:40:08;10.57;;;1.35;;
7199;SDS011;3641;49.082;8.200;2022-09-09T11:42:42;3.22;;;0.90;;
7199;SDS011;3641;49.082;8.200;2022-09-09T11:45:09;3.25;;;0.68;;
7199;SDS011;3641;49.082;8.200;2022-09-09T11:47:38;6.70;;;1.20;;
7199;SDS011;3641;49.082;8.200;2022-09-09T11:50:24;5.60;;;1.00;;
7199;SDS011;3641;49.082;8.200;2022-09-09T11:53:04;5.22;;;1.38;;
7199;SDS011;3641;49.082;8.200;2022-09-09T11:55:42;4.88;;;1.10;;
7199;SDS011;3641;49.082;8.200;2022-09-09T11:58:14;7.50;;;1.30;;
7199;SDS011;3641;49.082;8.200;2022-09-09T12:00:43;4.78;;;0.95;;
7199;SDS011;3641;49.082;8.200;2022-09-09T12:06:11;4.60;;;0.90;;
7199;SDS011;3641;49.082;8.200;2022-09-09T12:08:43;12.82;;;2.00;;
7199;SDS011;3641;49.082;8.200;2022-09-09T12:11:23;10.75;;;1.65;;
7199;SDS011;3641;49.082;8.200;2022-09-09T12:13:55;7.05;;;1.17;;
7199;SDS011;3641;49.082;8.200;2022-09-09T12:16:29;6.63;;;1.52;;
7199;SDS011;3641;49.082;8.200;2022-09-09T12:19:03;4.55;;;1.00;;
7199;SDS011;3641;49.082;8.200;2022-09-09T12:21:33;5.07;;;0.95;;
7199;SDS011;3641;49.082;8.200;2022-09-09T12:24:06;5.30;;;1.15;;
7199;SDS011;3641;49.082;8.200;2022-09-09T12:26:36;4.43;;;0.70;;
7199;SDS011;3641;49.082;8.200;2022-09-09T12:29:13;2.65;;;0.70;;
7199;SDS011;3641;49.082;8.200;2022-09-09T12:31:49;4.85;;;1.00;;
7199;SDS011;3641;49.082;8.200;2022-09-09T12:34:25;5.15;;;0.90;;
7199;SDS011;3641;49.082;8.200;2022-09-09T12:37:02;5.60;;;1.30;;
7199;SDS011;3641;49.082;8.200;2022-09-09T12:39:38;9.00;;;1.08;;
7199;SDS011;3641;49.082;8.200;2022-09-09T12:42:15;7.50;;;1.23;;
7199;SDS011;3641;49.082;8.200;2022-09-09T12:44:50;7.10;;;1.02;;
7199;SDS011;3641;49.082;8.200;2022-09-09T12:47:17;3.83;;;1.00;;
7199;SDS011;3641;49.082;8.200;2022-09-09T12:49:46;7.38;;;1.38;;
7199;SDS011;3641;49.082;8.200;2022-09-09T12:52:16;3.53;;;0.73;;
7199;SDS011;3641;49.082;8.200;2022-09-09T12:54:50;3.20;;;0.75;;
7199;SDS011;3641;49.082;8.200;2022-09-09T12:57:18;4.50;;;0.70;;
7199;SDS011;3641;49.082;8.200;2022-09-09T12:59:46;2.65;;;0.60;;
7199;SDS011;3641;49.082;8.200;2022-09-09T13:02:20;3.20;;;0.85;;
7199;SDS011;3641;49.082;8.200;2022-09-09T13:04:47;4.38;;;0.60;;
7199;SDS011;3641;49.082;8.200;2022-09-09T13:07:15;4.10;;;0.85;;
7199;SDS011;3641;49.082;8.200;2022-09-09T13:09:42;3.50;;;0.70;;
7199;SDS011;3641;49.082;8.200;2022-09-09T13:12:13;4.00;;;0.80;;
7199;SDS011;3641;49.082;8.200;2022-09-09T13:14:43;8.55;;;1.02;;
7199;SDS011;3641;49.082;8.200;2022-09-09T13:17:17;5.95;;;1.63;;
7199;SDS011;3641;49.082;8.200;2022-09-09T13:19:46;6.45;;;0.80;;
7199;SDS011;3641;49.082;8.200;2022-09-09T13:22:19;7.63;;;1.13;;
7199;SDS011;3641;49.082;8.200;2022-09-09T13:24:47;5.55;;;1.00;;
7199;SDS011;3641;49.082;8.200;2022-09-09T13:27:29;4.60;;;0.60;;
7199;SDS011;3641;49.082;8.200;2022-09-09T13:29:57;3.30;;;0.70;;
7199;SDS011;3641;49.082;8.200;2022-09-09T13:32:24;6.53;;;1.48;;
7199;SDS011;3641;49.082;8.200;2022-09-09T13:34:53;8.27;;;1.40;;
7199;SDS011;3641;49.082;8.200;2022-09-09T13:37:22;4.35;;;0.90;;
7199;SDS011;3641;49.082;8.200;2022-09-09T13:39:52;4.93;;;0.98;;
7199;SDS011;3641;49.082;8.200;2022-09-09T13:42:22;4.70;;;1.10;;
7199;SDS011;3641;49.082;8.200;2022-09-09T13:44:52;4.72;;;1.27;;
7199;SDS011;3641;49.082;8.200;2022-09-09T13:47:21;4.93;;;1.00;;
7199;SDS011;3641;49.082;8.200;2022-09-09T13:49:55;5.63;;;1.13;;
7199;SDS011;3641;49.082;8.200;2022-09-09T13:52:21;4.10;;;1.50;;
7199;SDS011;3641;49.082;8.200;2022-09-09T13:54:48;3.63;;;1.10;;
7199;SDS011;3641;49.082;8.200;2022-09-09T13:57:16;5.93;;;1.25;;
7199;SDS011;3641;49.082;8.200;2022-09-09T13:59:44;7.32;;;1.27;;
7199;SDS011;3641;49.082;8.200;2022-09-09T14:02:12;6.45;;;1.30;;
7199;SDS011;3641;49.082;8.200;2022-09-09T14:04:38;8.52;;;1.13;;
7199;SDS011;3641;49.082;8.200;2022-09-09T14:07:07;6.15;;;0.98;;
7199;SDS011;3641;49.082;8.200;2022-09-09T14:09:37;6.20;;;1.38;;
7199;SDS011;3641;49.082;8.200;2022-09-09T14:12:04;5.15;;;0.90;;
7199;SDS011;3641;49.082;8.200;2022-09-09T14:14:30;6.50;;;1.42;;
7199;SDS011;3641;49.082;8.200;2022-09-09T14:16:57;6.63;;;0.88;;
7199;SDS011;3641;49.082;8.200;2022-09-09T14:19:25;3.80;;;0.95;;
7199;SDS011;3641;49.082;8.200;2022-09-09T14:21:51;5.35;;;0.90;;
7199;SDS011;3641;49.082;8.200;2022-09-09T14:24:18;6.78;;;1.45;;
7199;SDS011;3641;49.082;8.200;2022-09-09T14:26:44;4.43;;;1.02;;
7199;SDS011;3641;49.082;8.200;2022-09-09T14:29:11;4.25;;;0.90;;
7199;SDS011;3641;49.082;8.200;2022-09-09T14:31:37;3.45;;;0.93;;
7199;SDS011;3641;49.082;8.200;2022-09-09T14:34:04;7.50;;;1.25;;
7199;SDS011;3641;49.082;8.200;2022-09-09T14:36:32;8.68;;;0.98;;
7199;SDS011;3641;49.082;8.200;2022-09-09T14:38:58;5.65;;;1.10;;
7199;SDS011;3641;49.082;8.200;2022-09-09T14:41:25;4.90;;;0.95;;
7199;SDS011;3641;49.082;8.200;2022-09-09T14:43:51;4.13;;;1.00;;
7199;SDS011;3641;49.082;8.200;2022-09-09T14:46:19;6.40;;;1.15;;
7199;SDS011;3641;49.082;8.200;2022-09-09T14:48:46;6.28;;;0.98;;
7199;SDS011;3641;49.082;8.200;2022-09-09T14:51:15;4.00;;;0.98;;
7199;SDS011;3641;49.082;8.200;2022-09-09T14:53:46;3.30;;;0.90;;
7199;SDS011;3641;49.082;8.200;2022-09-09T14:56:13;4.90;;;0.98;;
7199;SDS011;3641;49.082;8.200;2022-09-09T14:58:41;5.60;;;1.02;;
7199;SDS011;3641;49.082;8.200;2022-09-09T15:01:09;5.35;;;1.20;;
7199;SDS011;3641;49.082;8.200;2022-09-09T15:03:37;4.22;;;1.00;;
7199;SDS011;3641;49.082;8.200;2022-09-09T15:06:05;7.18;;;1.10;;
7199;SDS011;3641;49.082;8.200;2022-09-09T15:08:33;4.28;;;0.70;;
7199;SDS011;3641;49.082;8.200;2022-09-09T15:11:01;5.65;;;1.17;;
7199;SDS011;3641;49.082;8.200;2022-09-09T15:13:29;4.10;;;0.80;;
7199;SDS011;3641;49.082;8.200;2022-09-09T15:16:00;4.47;;;0.95;;
7199;SDS011;3641;49.082;8.200;2022-09-09T15:18:29;6.82;;;1.35;;
7199;SDS011;3641;49.082;8.200;2022-09-09T15:20:57;2.38;;;0.70;;
7199;SDS011;3641;49.082;8.200;2022-09-09T15:23:24;6.60;;;0.90;;
7199;SDS011;3641;49.082;8.200;2022-09-09T15:25:51;2.75;;;0.60;;
7199;SDS011;3641;49.082;8.200;2022-09-09T15:28:19;4.10;;;0.80;;
7199;SDS011;3641;49.082;8.200;2022-09-09T15:30:47;2.00;;;0.60;;
7199;SDS011;3641;49.082;8.200;2022-09-09T15:33:14;2.42;;;0.63;;
7199;SDS011;3641;49.082;8.200;2022-09-09T15:35:41;3.35;;;0.60;;
7199;SDS011;3641;49.082;8.200;2022-09-09T15:38:07;1.85;;;0.50;;
7199;SDS011;3641;49.082;8.200;2022-09-09T15:40:34;3.45;;;0.65;;